createdAt,value
2023-04-26T00:01:32.104Z,55.71
2023-04-26T00:03:36.048Z,55.60
2023-04-26T00:05:41.377Z,54.76
2023-04-26T00:07:46.836Z,54.66
2023-04-26T00:09:49.890Z,54.52
2023-04-26T00:11:52.637Z,54.38
2023-04-26T00:13:56.434Z,54.38
2023-04-26T00:15:59.630Z,54.64
2023-04-26T00:18:04.603Z,54.51
2023-04-26T00:20:12.410Z,54.33
2023-04-26T00:22:17.319Z,54.38
2023-04-26T00:24:21.158Z,54.53
2023-04-26T00:26:24.137Z,54.60
2023-04-26T00:28:26.761Z,54.49
2023-04-26T00:30:32.859Z,54.10
2023-04-26T00:32:35.692Z,54.26
2023-04-26T00:34:39.340Z,54.84
2023-04-26T00:36:42.367Z,54.87
2023-04-26T00:38:47.330Z,54.67
2023-04-26T00:40:51.952Z,54.72
2023-04-26T00:43:00.243Z,54.39
2023-04-26T00:45:04.637Z,54.54
2023-04-26T00:47:11.145Z,55.07
2023-04-26T00:49:22.683Z,54.91
2023-04-26T00:51:27.134Z,54.44
2023-04-26T00:53:32.538Z,54.73
2023-04-26T00:55:36.575Z,54.85
2023-04-26T00:57:41.159Z,54.72
2023-04-26T00:59:46.194Z,55.12
2023-04-26T01:01:51.517Z,55.06
2023-04-26T01:03:56.986Z,55.20
2023-04-26T01:06:00.418Z,54.97
2023-04-26T01:08:04.851Z,55.17
2023-04-26T01:10:10.099Z,55.08
2023-04-26T01:12:14.866Z,55.38
2023-04-26T01:14:20.584Z,55.56
2023-04-26T01:16:25.332Z,54.98
2023-04-26T01:18:28.904Z,54.53
2023-04-26T01:20:32.324Z,54.40
2023-04-26T01:22:37.967Z,54.36
2023-04-26T01:24:44.973Z,54.57
2023-04-26T01:26:48.259Z,54.75
2023-04-26T01:28:51.935Z,54.90
2023-04-26T01:30:55.608Z,54.85
2023-04-26T01:32:59.006Z,54.83
2023-04-26T01:35:02.655Z,55.21
2023-04-26T01:37:05.450Z,55.52
2023-04-26T01:39:10.897Z,55.38
2023-04-26T01:41:16.129Z,54.93
2023-04-26T01:43:21.134Z,54.63
2023-04-26T01:45:24.066Z,54.93
2023-04-26T01:47:46.835Z,55.57
2023-04-26T01:49:49.927Z,55.35
2023-04-26T01:51:53.440Z,55.15
2023-04-26T01:53:56.100Z,55.24
2023-04-26T01:56:03.066Z,55.49
2023-04-26T01:58:06.936Z,55.07
2023-04-26T02:00:10.390Z,54.99
2023-04-26T02:02:19.123Z,54.66
2023-04-26T02:04:24.489Z,54.57
2023-04-26T02:06:29.454Z,54.71
2023-04-26T02:08:32.653Z,54.79
2023-04-26T02:10:35.988Z,54.87
2023-04-26T02:12:40.314Z,54.94
2023-04-26T02:14:43.721Z,55.01
2023-04-26T02:16:47.008Z,55.44
2023-04-26T02:18:50.063Z,55.69
2023-04-26T02:20:54.274Z,55.85
2023-04-26T02:22:57.100Z,56.43
2023-04-26T02:24:59.694Z,56.29
2023-04-26T02:27:05.216Z,56.16
2023-04-26T02:29:10.042Z,55.98
2023-04-26T02:31:16.343Z,56.11
2023-04-26T02:33:19.046Z,55.81
2023-04-26T02:35:22.967Z,55.75
2023-04-26T02:37:27.710Z,56.00
2023-04-26T02:39:34.670Z,56.42
2023-04-26T02:41:38.401Z,56.59
2023-04-26T02:43:41.689Z,56.45
2023-04-26T02:45:45.588Z,56.75
2023-04-26T02:47:49.976Z,56.51
2023-04-26T02:49:54.789Z,56.85
2023-04-26T02:51:58.003Z,56.96
2023-04-26T02:54:05.730Z,57.27
2023-04-26T02:56:10.209Z,57.44
2023-04-26T02:58:13.458Z,57.24
2023-04-26T03:00:18.353Z,57.09
2023-04-26T03:02:22.282Z,57.05
2023-04-26T03:04:26.519Z,57.24
2023-04-26T03:06:30.540Z,57.05
2023-04-26T03:08:35.285Z,57.12
2023-04-26T03:10:38.376Z,56.95
2023-04-26T03:12:42.469Z,57.18
2023-04-26T03:14:48.428Z,57.14
2023-04-26T03:16:52.336Z,56.74
2023-04-26T03:19:03.520Z,56.71
2023-04-26T03:21:08.747Z,57.05
2023-04-26T03:23:13.062Z,57.01
2023-04-26T03:25:16.535Z,57.01
2023-04-26T03:27:20.259Z,57.11
2023-04-26T03:29:23.401Z,57.37
2023-04-26T03:31:27.518Z,58.02
2023-04-26T03:33:33.508Z,58.29
2023-04-26T03:35:37.309Z,58.29
2023-04-26T03:37:43.532Z,58.32
2023-04-26T03:39:51.761Z,58.04
2023-04-26T03:41:57.115Z,57.92
2023-04-26T03:44:02.438Z,58.03
2023-04-26T03:46:07.739Z,57.80
2023-04-26T03:48:10.996Z,58.22
2023-04-26T03:50:14.111Z,58.25
2023-04-26T03:52:17.632Z,57.86
2023-04-26T03:54:22.577Z,57.60
2023-04-26T03:56:26.403Z,57.67
2023-04-26T03:58:32.528Z,57.87
2023-04-26T04:00:38.851Z,58.23
2023-04-26T04:02:45.147Z,58.24
2023-04-26T04:04:52.504Z,58.04
2023-04-26T04:06:56.342Z,57.82
2023-04-26T04:09:00.057Z,58.19
2023-04-26T04:11:04.057Z,58.18
2023-04-26T04:13:12.557Z,58.44
2023-04-26T04:15:16.580Z,58.50
2023-04-26T04:17:24.240Z,58.83
2023-04-26T04:19:28.171Z,58.78
2023-04-26T04:21:32.160Z,58.61
2023-04-26T04:23:36.796Z,58.44
2023-04-26T04:25:45.602Z,58.48
2023-04-26T04:27:49.180Z,58.82
2023-04-26T04:29:54.016Z,58.83
2023-04-26T04:31:58.240Z,58.38
2023-04-26T04:34:01.621Z,58.56
2023-04-26T04:36:06.357Z,58.63
2023-04-26T04:38:10.170Z,58.57
2023-04-26T04:40:16.104Z,58.59
2023-04-26T04:42:21.762Z,58.67
2023-04-26T04:44:27.061Z,58.53
2023-04-26T04:46:32.928Z,58.64
2023-04-26T04:48:38.779Z,59.02
2023-04-26T04:50:42.646Z,59.18
2023-04-26T04:52:47.207Z,58.94
2023-04-26T04:54:52.863Z,58.39
2023-04-26T04:56:57.913Z,58.23
2023-04-26T04:59:00.538Z,58.43
2023-04-26T05:01:03.431Z,58.39
2023-04-26T05:03:19.439Z,58.88
2023-04-26T05:05:24.098Z,58.79
2023-04-26T05:07:28.914Z,58.85
2023-04-26T05:09:36.696Z,58.89
2023-04-26T05:11:39.737Z,59.06
2023-04-26T05:13:44.221Z,58.58
2023-04-26T05:15:46.962Z,58.50
2023-04-26T05:17:50.137Z,58.80
2023-04-26T05:19:57.722Z,58.72
2023-04-26T05:22:01.933Z,59.26
2023-04-26T05:24:05.861Z,59.14
2023-04-26T05:26:14.085Z,59.18
2023-04-26T05:28:37.335Z,59.26
2023-04-26T05:30:57.290Z,59.30
2023-04-26T05:33:26.222Z,59.35
2023-04-26T05:35:43.325Z,59.37
2023-04-26T05:37:46.582Z,59.29
2023-04-26T05:39:51.705Z,59.50
2023-04-26T05:41:55.391Z,59.18
2023-04-26T05:44:00.062Z,59.12
2023-04-26T05:46:07.758Z,58.88
2023-04-26T05:48:10.533Z,58.45
2023-04-26T05:50:13.612Z,58.46
2023-04-26T05:52:16.685Z,58.42
2023-04-26T05:54:19.429Z,58.47
2023-04-26T05:56:25.909Z,58.40
2023-04-26T05:58:29.389Z,58.32
2023-04-26T06:00:37.842Z,58.25
2023-04-26T06:02:42.476Z,58.42
2023-04-26T06:04:50.218Z,58.72
2023-04-26T06:06:54.741Z,58.58
2023-04-26T06:08:58.673Z,58.51
2023-04-26T06:11:24.999Z,58.09
2023-04-26T06:13:32.799Z,57.84
2023-04-26T06:15:35.860Z,57.63
2023-04-26T06:17:39.481Z,57.85
2023-04-26T06:19:44.297Z,57.30
2023-04-26T06:21:48.929Z,57.01
2023-04-26T06:23:52.287Z,57.06
2023-04-26T06:25:57.731Z,57.46
2023-04-26T06:28:00.947Z,57.36
2023-04-26T06:30:05.161Z,56.98
2023-04-26T06:32:09.587Z,56.82
2023-04-26T06:34:12.356Z,56.78
2023-04-26T06:36:15.419Z,56.58
2023-04-26T06:38:19.927Z,56.45
2023-04-26T06:40:24.167Z,56.81
2023-04-26T06:42:27.111Z,56.50
2023-04-26T06:44:49.249Z,56.31
2023-04-26T06:46:55.957Z,56.07
2023-04-26T06:48:58.914Z,56.19
2023-04-26T06:51:09.002Z,56.03
2023-04-26T06:53:12.885Z,55.77
2023-04-26T06:55:16.271Z,55.80
2023-04-26T06:57:22.718Z,55.51
2023-04-26T06:59:26.495Z,55.30
2023-04-26T07:01:36.956Z,55.26
2023-04-26T07:03:43.934Z,55.07
2023-04-26T07:05:48.715Z,55.09
2023-04-26T07:07:51.484Z,55.20
2023-04-26T07:09:56.269Z,54.75
2023-04-26T07:12:02.926Z,54.54
2023-04-26T07:14:07.829Z,54.75
2023-04-26T07:16:11.373Z,55.03
2023-04-26T07:18:14.203Z,54.58
2023-04-26T07:20:23.298Z,54.53
2023-04-26T07:22:27.813Z,54.75
2023-04-26T07:24:31.028Z,54.52
2023-04-26T07:26:41.522Z,54.48
2023-04-26T07:28:45.065Z,54.47
2023-04-26T07:30:48.063Z,54.28
2023-04-26T07:32:53.499Z,53.57
2023-04-26T07:34:56.988Z,52.81
2023-04-26T07:37:00.667Z,52.66
2023-04-26T07:39:05.677Z,52.13
2023-04-26T07:41:09.702Z,52.18
2023-04-26T07:43:13.834Z,51.90
2023-04-26T07:45:17.427Z,51.67
2023-04-26T07:47:21.333Z,51.91
2023-04-26T07:49:24.221Z,51.07
2023-04-26T07:51:27.581Z,51.09
2023-04-26T07:53:30.848Z,51.00
2023-04-26T07:55:33.837Z,51.01
2023-04-26T07:57:37.703Z,51.20
2023-04-26T07:59:41.989Z,50.88
2023-04-26T08:01:46.000Z,50.74
2023-04-26T08:03:50.241Z,50.48
2023-04-26T08:05:54.131Z,50.48
2023-04-26T08:07:57.396Z,50.24
2023-04-26T08:10:01.924Z,50.14
2023-04-26T08:12:06.750Z,50.15
2023-04-26T08:14:12.993Z,50.11
2023-04-26T08:16:16.192Z,50.14
2023-04-26T08:18:20.815Z,49.97
2023-04-26T08:20:25.439Z,49.72
2023-04-26T08:22:29.573Z,49.30
2023-04-26T08:24:32.731Z,48.92
2023-04-26T08:26:35.491Z,48.43
2023-04-26T08:28:38.667Z,48.15
2023-04-26T08:30:41.839Z,47.79
2023-04-26T08:32:46.258Z,47.78
2023-04-26T08:34:49.062Z,48.04
2023-04-26T08:36:53.538Z,48.04
2023-04-26T08:38:58.085Z,48.03
2023-04-26T08:41:02.397Z,48.36
2023-04-26T08:43:07.548Z,48.08
2023-04-26T08:45:11.765Z,47.12
2023-04-26T08:47:34.716Z,46.82
2023-04-26T08:49:41.627Z,46.20
2023-04-26T08:51:46.629Z,46.38
2023-04-26T08:53:53.423Z,46.65
2023-04-26T08:56:00.170Z,46.83
2023-04-26T08:58:04.485Z,46.19
2023-04-26T09:00:12.947Z,45.81
2023-04-26T09:02:21.370Z,46.28
2023-04-26T09:04:25.362Z,46.04
2023-04-26T09:06:29.450Z,45.30
2023-04-26T09:08:37.011Z,45.50
2023-04-26T09:10:40.253Z,45.37
2023-04-26T09:12:43.038Z,44.32
2023-04-26T09:14:47.592Z,43.79
2023-04-26T09:16:50.635Z,44.26
2023-04-26T09:19:00.538Z,44.18
2023-04-26T09:21:08.607Z,44.33
2023-04-26T09:23:11.364Z,44.40
2023-04-26T09:25:18.279Z,43.96
2023-04-26T09:27:22.581Z,43.72
2023-04-26T09:29:26.118Z,43.95
2023-04-26T09:31:47.785Z,44.18
2023-04-26T09:34:02.951Z,44.62
2023-04-26T09:36:15.536Z,44.40
2023-04-26T09:38:18.857Z,44.48
2023-04-26T09:40:26.261Z,45.31
2023-04-26T09:42:29.103Z,44.50
2023-04-26T09:44:33.164Z,44.58
2023-04-26T09:46:39.222Z,44.60
2023-04-26T09:48:42.240Z,44.07
2023-04-26T09:50:46.666Z,44.05
2023-04-26T09:52:51.471Z,43.90
2023-04-26T09:54:55.219Z,44.27
2023-04-26T09:57:06.410Z,43.96
2023-04-26T09:59:12.743Z,43.34
2023-04-26T10:01:18.882Z,42.21
2023-04-26T10:03:23.343Z,42.60
2023-04-26T10:05:29.627Z,42.63
2023-04-26T10:07:36.665Z,42.39
2023-04-26T10:09:40.770Z,41.67
2023-04-26T10:11:46.498Z,41.92
2023-04-26T10:13:54.664Z,41.80
2023-04-26T10:16:01.185Z,42.00
2023-04-26T10:18:05.710Z,41.82
2023-04-26T10:20:14.079Z,41.54
2023-04-26T10:22:26.077Z,41.70
2023-04-26T10:24:29.085Z,41.85
2023-04-26T10:26:48.727Z,41.72
2023-04-26T10:29:02.003Z,40.86
2023-04-26T10:31:07.461Z,41.11
2023-04-26T10:33:17.220Z,41.48
2023-04-26T10:35:22.211Z,41.55
2023-04-26T10:37:25.192Z,41.53
2023-04-26T10:39:28.412Z,41.23
2023-04-26T10:41:37.280Z,41.06
2023-04-26T10:43:42.936Z,40.75
2023-04-26T10:45:46.963Z,40.40
2023-04-26T10:47:49.765Z,40.87
2023-04-26T10:49:53.219Z,40.86
2023-04-26T10:52:21.207Z,40.82
2023-04-26T10:54:24.488Z,40.77
2023-04-26T10:56:29.317Z,40.95
2023-04-26T10:58:34.969Z,40.91
2023-04-26T11:00:38.971Z,40.24
2023-04-26T11:02:46.917Z,40.10
2023-04-26T11:04:53.206Z,40.46
2023-04-26T11:07:00.560Z,40.02
2023-04-26T11:09:05.516Z,39.92
2023-04-26T11:11:12.572Z,40.10
2023-04-26T11:13:18.541Z,40.21
2023-04-26T11:15:21.824Z,40.56
2023-04-26T11:17:25.645Z,40.61
2023-04-26T11:19:28.854Z,40.42
2023-04-26T11:21:33.140Z,40.08
2023-04-26T11:23:36.760Z,40.11
2023-04-26T11:25:40.141Z,39.96
2023-04-26T11:27:43.416Z,40.43
2023-04-26T11:29:47.196Z,39.82
2023-04-26T11:32:00.638Z,39.69
2023-04-26T11:34:07.096Z,40.09
2023-04-26T11:36:10.965Z,39.91
2023-04-26T11:38:14.954Z,39.62
2023-04-26T11:40:19.032Z,39.14
2023-04-26T11:42:27.472Z,38.83
2023-04-26T11:44:30.423Z,39.08
2023-04-26T11:46:34.070Z,38.53
2023-04-26T11:48:41.610Z,39.14
2023-04-26T11:50:45.832Z,38.69
2023-04-26T11:52:48.642Z,38.46
2023-04-26T11:55:04.484Z,38.60
2023-04-26T11:57:16.731Z,38.93
2023-04-26T11:59:33.272Z,39.28
2023-04-26T12:01:35.854Z,38.88
2023-04-26T12:03:38.955Z,38.86
2023-04-26T12:05:42.820Z,38.54
2023-04-26T12:07:50.726Z,38.57
2023-04-26T12:09:56.780Z,38.89
2023-04-26T12:12:06.769Z,38.59
2023-04-26T12:14:10.290Z,38.86
2023-04-26T12:16:25.437Z,38.79
2023-04-26T12:18:32.917Z,38.82
2023-04-26T12:20:38.954Z,38.49
2023-04-26T12:22:41.929Z,38.75
2023-04-26T12:24:44.894Z,38.78
2023-04-26T12:26:49.637Z,38.64
2023-04-26T12:28:55.018Z,39.26
2023-04-26T12:30:57.963Z,39.14
2023-04-26T12:33:13.050Z,38.94
2023-04-26T12:35:20.661Z,38.85
2023-04-26T12:37:24.586Z,38.44
2023-04-26T12:39:27.603Z,38.70
2023-04-26T12:41:31.184Z,38.88
2023-04-26T12:43:34.188Z,38.81
2023-04-26T12:45:36.940Z,38.53
2023-04-26T12:47:41.956Z,38.37
2023-04-26T12:49:44.469Z,38.58
2023-04-26T12:51:48.448Z,38.88
2023-04-26T12:53:51.248Z,38.74
2023-04-26T12:55:54.039Z,37.66
2023-04-26T12:57:57.885Z,37.12
2023-04-26T13:00:01.399Z,36.59
2023-04-26T13:02:12.977Z,37.49
2023-04-26T13:04:19.483Z,37.32
2023-04-26T13:06:23.984Z,37.19
2023-04-26T13:08:37.434Z,36.97
2023-04-26T13:10:43.668Z,37.61
2023-04-26T13:12:51.763Z,37.64
2023-04-26T13:14:56.896Z,37.81
2023-04-26T13:17:00.323Z,37.77
2023-04-26T13:19:09.526Z,37.11
2023-04-26T13:21:14.195Z,37.25
2023-04-26T13:23:24.326Z,37.47
2023-04-26T13:25:27.786Z,37.28
2023-04-26T13:27:34.268Z,37.78
2023-04-26T13:29:38.419Z,37.89
2023-04-26T13:31:41.606Z,37.59
2023-04-26T13:33:45.571Z,37.25
2023-04-26T13:35:48.325Z,36.95
2023-04-26T13:37:51.020Z,36.60
2023-04-26T13:39:55.471Z,36.74
2023-04-26T13:42:02.007Z,36.49
2023-04-26T13:44:07.564Z,36.94
2023-04-26T13:46:17.961Z,36.20
2023-04-26T13:48:24.240Z,35.43
2023-04-26T13:50:27.183Z,35.31
2023-04-26T13:52:30.935Z,35.49
2023-04-26T13:54:37.633Z,36.10
2023-04-26T13:56:44.869Z,36.27
2023-04-26T13:58:47.632Z,36.05
2023-04-26T14:00:50.520Z,36.37
2023-04-26T14:02:54.843Z,36.19
2023-04-26T14:04:59.432Z,36.16
2023-04-26T14:07:02.065Z,35.32
2023-04-26T14:09:09.503Z,35.00
2023-04-26T14:11:14.249Z,35.51
2023-04-26T14:13:17.042Z,35.75
2023-04-26T14:15:19.822Z,36.08
2023-04-26T14:17:27.601Z,35.85
2023-04-26T14:19:30.716Z,35.40
2023-04-26T14:21:33.916Z,35.22
2023-04-26T14:23:37.001Z,36.25
2023-04-26T14:25:40.456Z,36.73
2023-04-26T14:27:46.416Z,36.41
2023-04-26T14:29:50.352Z,36.07
2023-04-26T14:31:53.038Z,35.87
2023-04-26T14:33:56.657Z,36.27
2023-04-26T14:36:00.644Z,35.81
2023-04-26T14:38:03.241Z,35.06
2023-04-26T14:40:07.967Z,35.10
2023-04-26T14:42:11.369Z,35.73
2023-04-26T14:44:15.602Z,35.94
2023-04-26T14:46:18.723Z,34.76
2023-04-26T14:48:30.450Z,33.99
2023-04-26T14:50:33.458Z,33.93
2023-04-26T14:52:37.546Z,33.66
2023-04-26T14:54:41.837Z,33.21
2023-04-26T14:56:48.937Z,32.86
2023-04-26T14:58:52.916Z,32.78
2023-04-26T15:00:56.401Z,32.88
2023-04-26T15:03:01.765Z,32.43
2023-04-26T15:05:05.973Z,32.59
2023-04-26T15:07:18.047Z,32.45
2023-04-26T15:09:32.178Z,32.84
2023-04-26T15:11:37.085Z,32.99
2023-04-26T15:13:41.100Z,33.15
2023-04-26T15:15:43.872Z,33.19
2023-04-26T15:17:47.693Z,33.19
2023-04-26T15:19:52.269Z,32.53
2023-04-26T15:21:55.262Z,32.49
2023-04-26T15:23:58.409Z,32.55
2023-04-26T15:26:02.471Z,32.56
2023-04-26T15:28:05.555Z,32.69
2023-04-26T15:30:10.989Z,32.69
2023-04-26T15:32:14.090Z,32.83
2023-04-26T15:34:25.577Z,31.78
2023-04-26T15:36:28.350Z,31.82
2023-04-26T15:38:30.900Z,32.63
2023-04-26T15:40:39.002Z,32.63
2023-04-26T15:42:43.098Z,32.36
2023-04-26T15:44:49.014Z,32.28
2023-04-26T15:46:54.186Z,32.43
2023-04-26T15:48:56.985Z,32.18
2023-04-26T15:51:05.196Z,32.03
2023-04-26T15:53:08.050Z,32.15
2023-04-26T15:55:12.475Z,32.16
2023-04-26T15:57:18.223Z,32.25
2023-04-26T15:59:22.576Z,32.69
2023-04-26T16:01:29.055Z,33.22
2023-04-26T16:03:34.739Z,32.35
2023-04-26T16:05:37.528Z,30.87
2023-04-26T16:07:41.012Z,30.86
2023-04-26T16:09:44.841Z,30.44
2023-04-26T16:11:47.821Z,30.11
2023-04-26T16:13:51.911Z,28.76
2023-04-26T16:15:56.447Z,29.05
2023-04-26T16:17:59.173Z,28.19
2023-04-26T16:20:04.768Z,28.25
2023-04-26T16:22:07.622Z,29.20
2023-04-26T16:24:12.430Z,29.27
2023-04-26T16:26:15.123Z,29.86
2023-04-26T16:28:18.005Z,29.69
2023-04-26T16:30:21.190Z,29.87
2023-04-26T16:32:24.098Z,29.58
2023-04-26T16:34:26.946Z,29.33
2023-04-26T16:36:34.437Z,29.60
2023-04-26T16:38:39.604Z,30.19
2023-04-26T16:40:44.164Z,30.55
2023-04-26T16:42:47.820Z,30.73
2023-04-26T16:44:50.464Z,31.09
2023-04-26T16:46:55.198Z,31.32
2023-04-26T16:48:58.577Z,31.09
2023-04-26T16:51:03.564Z,31.57
2023-04-26T16:53:08.119Z,31.55
2023-04-26T16:55:12.437Z,31.66
2023-04-26T16:57:16.750Z,31.45
2023-04-26T16:59:19.393Z,31.49
2023-04-26T17:01:22.537Z,31.75
2023-04-26T17:03:28.510Z,32.29
2023-04-26T17:05:50.312Z,32.09
2023-04-26T17:07:53.216Z,32.23
2023-04-26T17:09:56.347Z,32.46
2023-04-26T17:11:59.173Z,32.54
2023-04-26T17:14:02.091Z,32.55
2023-04-26T17:16:05.893Z,31.80
2023-04-26T17:18:09.964Z,30.79
2023-04-26T17:20:13.690Z,30.62
2023-04-26T17:22:16.778Z,30.34
2023-04-26T17:24:19.939Z,29.54
2023-04-26T17:26:22.737Z,29.11
2023-04-26T17:28:26.643Z,28.99
2023-04-26T17:30:29.618Z,29.25
2023-04-26T17:32:32.335Z,29.55
2023-04-26T17:34:37.780Z,29.88
2023-04-26T17:36:41.073Z,30.39
2023-04-26T17:38:44.128Z,30.89
2023-04-26T17:40:54.099Z,30.64
2023-04-26T17:42:56.789Z,30.31
2023-04-26T17:45:01.569Z,29.94
2023-04-26T17:47:07.903Z,29.86
2023-04-26T17:49:13.914Z,30.46
2023-04-26T17:51:16.743Z,30.74
2023-04-26T17:53:19.673Z,30.79
2023-04-26T17:55:22.588Z,30.67
2023-04-26T17:57:27.175Z,31.63
2023-04-26T17:59:31.088Z,32.22
2023-04-26T18:01:36.437Z,32.84
2023-04-26T18:03:40.364Z,32.85
2023-04-26T18:05:46.791Z,33.31
2023-04-26T18:07:49.897Z,33.75
2023-04-26T18:09:53.275Z,33.10
2023-04-26T18:11:56.257Z,32.90
2023-04-26T18:13:59.576Z,32.66
2023-04-26T18:16:03.649Z,32.97
2023-04-26T18:18:08.097Z,33.03
2023-04-26T18:20:13.257Z,33.18
2023-04-26T18:22:16.038Z,33.33
2023-04-26T18:24:19.767Z,33.62
2023-04-26T18:26:27.429Z,34.07
2023-04-26T18:28:31.922Z,33.72
2023-04-26T18:30:37.957Z,33.79
2023-04-26T18:32:41.296Z,34.18
2023-04-26T18:34:44.651Z,35.14
2023-04-26T18:36:49.248Z,35.16
2023-04-26T18:38:53.451Z,35.39
2023-04-26T18:40:56.446Z,36.46
2023-04-26T18:43:00.094Z,36.99
2023-04-26T18:45:10.516Z,37.83
2023-04-26T18:47:13.602Z,38.60
2023-04-26T18:49:19.900Z,38.77
2023-04-26T18:51:24.801Z,39.65
2023-04-26T18:53:28.093Z,39.58
2023-04-26T18:55:31.852Z,39.39
2023-04-26T18:57:34.426Z,39.68
2023-04-26T18:59:38.983Z,39.94
2023-04-26T19:01:41.968Z,39.42
2023-04-26T19:03:45.294Z,39.61
2023-04-26T19:05:56.123Z,39.86
2023-04-26T19:07:59.173Z,40.14
2023-04-26T19:10:04.351Z,40.86
2023-04-26T19:12:09.228Z,41.06
2023-04-26T19:14:12.049Z,41.40
2023-04-26T19:16:14.842Z,42.06
2023-04-26T19:18:18.012Z,42.27
2023-04-26T19:20:20.750Z,42.50
2023-04-26T19:22:23.332Z,42.29
2023-04-26T19:24:25.971Z,42.06
2023-04-26T19:26:28.559Z,41.97
2023-04-26T19:28:31.880Z,41.88
2023-04-26T19:30:36.421Z,42.49
2023-04-26T19:32:39.224Z,42.63
2023-04-26T19:34:42.082Z,42.79
2023-04-26T19:36:47.826Z,43.71
2023-04-26T19:38:50.834Z,43.96
2023-04-26T19:40:55.628Z,44.42
2023-04-26T19:42:59.441Z,44.80
2023-04-26T19:45:04.639Z,44.97
2023-04-26T19:47:09.557Z,45.18
2023-04-26T19:49:13.864Z,45.27
2023-04-26T19:51:20.788Z,45.60
2023-04-26T19:53:25.583Z,45.75
2023-04-26T19:55:34.059Z,45.39
2023-04-26T19:57:38.237Z,45.08
2023-04-26T19:59:45.794Z,44.89
2023-04-26T20:01:51.010Z,44.91
2023-04-26T20:03:57.196Z,44.72
2023-04-26T20:06:01.387Z,45.11
2023-04-26T20:08:04.890Z,45.73
2023-04-26T20:10:09.888Z,45.60
2023-04-26T20:12:13.731Z,45.33
2023-04-26T20:14:16.513Z,45.77
2023-04-26T20:16:20.038Z,45.94
2023-04-26T20:18:23.806Z,45.65
2023-04-26T20:20:26.665Z,45.57
2023-04-26T20:22:29.968Z,45.63
2023-04-26T20:24:33.494Z,45.89
2023-04-26T20:26:36.207Z,46.17
2023-04-26T20:28:40.077Z,46.75
2023-04-26T20:30:43.140Z,47.21
2023-04-26T20:32:47.469Z,47.35
2023-04-26T20:34:51.347Z,47.53
2023-04-26T20:36:56.273Z,47.91
2023-04-26T20:38:59.581Z,47.15
2023-04-26T20:41:03.594Z,47.14
2023-04-26T20:43:09.239Z,47.03
2023-04-26T20:45:13.894Z,47.04
2023-04-26T20:47:19.269Z,47.19
2023-04-26T20:49:23.488Z,47.30
2023-04-26T20:51:26.916Z,47.59
2023-04-26T20:53:31.953Z,47.63
2023-04-26T20:55:36.835Z,47.84
2023-04-26T20:57:42.728Z,48.00
2023-04-26T20:59:45.501Z,48.09
2023-04-26T21:01:48.700Z,47.94
2023-04-26T21:03:52.991Z,47.91
2023-04-26T21:05:56.361Z,48.01
2023-04-26T21:07:59.343Z,48.18
2023-04-26T21:10:02.519Z,48.05
2023-04-26T21:12:05.639Z,48.07
2023-04-26T21:14:09.275Z,48.20
2023-04-26T21:16:12.716Z,48.28
2023-04-26T21:18:15.715Z,48.24
2023-04-26T21:20:19.149Z,48.01
2023-04-26T21:22:22.271Z,48.02
2023-04-26T21:24:27.294Z,48.01
2023-04-26T21:26:31.322Z,48.09
2023-04-26T21:28:36.743Z,48.02
2023-04-26T21:30:39.492Z,48.05
2023-04-26T21:32:44.062Z,48.33
2023-04-26T21:34:49.527Z,48.35
2023-04-26T21:37:11.328Z,48.33
2023-04-26T21:39:16.290Z,48.75
2023-04-26T21:41:19.329Z,49.25
2023-04-26T21:43:25.856Z,49.49
2023-04-26T21:45:30.081Z,49.48
2023-04-26T21:47:33.275Z,49.51
2023-04-26T21:49:36.587Z,49.59
2023-04-26T21:51:40.826Z,49.82
2023-04-26T21:53:43.967Z,50.03
2023-04-26T21:55:53.722Z,50.28
2023-04-26T21:57:56.676Z,50.32
2023-04-26T21:59:59.368Z,50.12
2023-04-26T22:02:05.163Z,50.12
2023-04-26T22:04:08.244Z,50.57
2023-04-26T22:06:13.878Z,50.50
2023-04-26T22:08:16.950Z,50.62
2023-04-26T22:10:21.236Z,50.88
2023-04-26T22:12:24.205Z,50.98
2023-04-26T22:14:27.017Z,50.90
2023-04-26T22:16:29.820Z,50.68
2023-04-26T22:18:35.088Z,50.59
2023-04-26T22:20:38.442Z,50.35
2023-04-26T22:22:41.528Z,50.90
2023-04-26T22:24:44.170Z,51.14
2023-04-26T22:26:48.170Z,51.13
2023-04-26T22:28:52.190Z,50.87
2023-04-26T22:30:54.786Z,51.01
2023-04-26T22:32:59.681Z,51.27
2023-04-26T22:35:03.788Z,51.19
2023-04-26T22:37:19.633Z,50.91
2023-04-26T22:39:24.032Z,50.83
2023-04-26T22:41:27.808Z,50.78
2023-04-26T22:43:32.619Z,50.78
2023-04-26T22:45:35.676Z,50.68
2023-04-26T22:47:39.333Z,50.74
2023-04-26T22:49:42.608Z,50.47
2023-04-26T22:51:57.325Z,50.47
2023-04-26T22:54:05.977Z,50.34
2023-04-26T22:56:10.425Z,50.43
2023-04-26T22:58:14.367Z,50.41
2023-04-26T23:00:17.998Z,50.46
2023-04-26T23:02:21.747Z,50.55
2023-04-26T23:04:24.638Z,50.80
2023-04-26T23:06:28.011Z,50.82
2023-04-26T23:08:32.169Z,50.91
2023-04-26T23:10:36.929Z,50.97
2023-04-26T23:12:41.586Z,50.92
2023-04-26T23:14:44.197Z,50.72
2023-04-26T23:16:51.622Z,50.71
2023-04-26T23:18:54.908Z,51.14
2023-04-26T23:20:57.912Z,51.31
2023-04-26T23:23:00.743Z,51.29
2023-04-26T23:25:04.431Z,51.19
2023-04-26T23:27:07.629Z,51.79
2023-04-26T23:29:11.263Z,51.52
2023-04-26T23:31:15.533Z,51.68
2023-04-26T23:33:18.212Z,51.79
2023-04-26T23:35:26.790Z,51.79
2023-04-26T23:37:29.577Z,51.65
2023-04-26T23:39:32.326Z,51.96
2023-04-26T23:41:36.392Z,51.73
2023-04-26T23:43:39.643Z,51.82
2023-04-26T23:45:47.419Z,51.79
2023-04-26T23:47:50.423Z,51.94
2023-04-26T23:50:06.424Z,52.08
2023-04-26T23:52:13.570Z,51.98
2023-04-26T23:54:17.997Z,51.93
2023-04-26T23:56:22.176Z,51.93
2023-04-26T23:58:25.438Z,52.39
